createdAt,value
2022-10-02T00:02:04.935Z,16.40
2022-10-02T00:04:42.931Z,16.40
2022-10-02T00:07:13.298Z,16.40
2022-10-02T00:09:47.510Z,16.30
2022-10-02T00:12:20.834Z,16.30
2022-10-02T00:14:53.421Z,16.20
2022-10-02T00:17:25.698Z,16.20
2022-10-02T00:19:55.159Z,16.10
2022-10-02T00:22:36.681Z,16.20
2022-10-02T00:25:11.330Z,16.10
2022-10-02T00:27:55.695Z,16.10
2022-10-02T00:30:23.907Z,16.10
2022-10-02T00:33:02.773Z,16.00
2022-10-02T00:35:53.569Z,16.00
2022-10-02T00:38:31.745Z,16.00
2022-10-02T00:41:18.527Z,15.90
2022-10-02T00:44:01.397Z,15.90
2022-10-02T00:46:42.842Z,15.80
2022-10-02T00:49:29.339Z,15.80
2022-10-02T00:52:06.617Z,15.80
2022-10-02T00:54:59.416Z,15.80
2022-10-02T00:57:39.277Z,15.80
2022-10-02T01:00:12.694Z,15.80
2022-10-02T01:03:03.348Z,15.80
2022-10-02T01:05:32.536Z,15.70
2022-10-02T01:08:01.081Z,15.70
2022-10-02T01:10:30.908Z,15.70
2022-10-02T01:12:59.722Z,15.70
2022-10-02T01:15:33.399Z,15.70
2022-10-02T01:18:03.314Z,15.70
2022-10-02T01:20:37.213Z,15.70
2022-10-02T01:23:15.076Z,15.60
2022-10-02T01:25:45.108Z,15.60
2022-10-02T01:28:13.824Z,15.60
2022-10-02T01:30:45.714Z,15.50
2022-10-02T01:33:16.440Z,15.50
2022-10-02T01:35:45.124Z,15.50
2022-10-02T01:38:15.623Z,15.50
2022-10-02T01:40:45.599Z,15.50
2022-10-02T01:43:17.616Z,15.50
2022-10-02T01:45:53.789Z,15.40
2022-10-02T01:48:35.928Z,15.40
2022-10-02T01:51:16.823Z,15.40
2022-10-02T01:53:50.672Z,15.40
2022-10-02T01:56:28.648Z,15.30
2022-10-02T01:59:05.700Z,15.20
2022-10-02T02:01:43.835Z,15.10
2022-10-02T02:04:22.917Z,15.10
2022-10-02T02:06:58.437Z,15.00
2022-10-02T02:09:34.784Z,14.90
2022-10-02T02:12:11.076Z,14.80
2022-10-02T02:14:44.944Z,14.70
2022-10-02T02:17:18.525Z,14.70
2022-10-02T02:19:50.271Z,14.60
2022-10-02T02:22:23.487Z,14.60
2022-10-02T02:24:57.060Z,14.60
2022-10-02T02:27:31.034Z,14.60
2022-10-02T02:30:09.577Z,14.50
2022-10-02T02:32:40.970Z,14.50
2022-10-02T02:35:14.217Z,14.40
2022-10-02T02:37:46.148Z,14.40
2022-10-02T02:40:18.925Z,14.30
2022-10-02T02:42:56.031Z,14.30
2022-10-02T02:45:28.643Z,14.30
2022-10-02T02:48:01.389Z,14.30
2022-10-02T02:50:33.975Z,14.30
2022-10-02T02:53:09.513Z,14.30
2022-10-02T02:55:45.152Z,14.30
2022-10-02T02:58:19.006Z,14.30
2022-10-02T03:00:47.345Z,14.30
2022-10-02T03:03:15.739Z,14.20
2022-10-02T03:05:48.067Z,14.20
2022-10-02T03:08:23.608Z,14.20
2022-10-02T03:11:01.794Z,14.10
2022-10-02T03:13:43.240Z,14.10
2022-10-02T03:16:21.768Z,14.10
2022-10-02T03:19:01.366Z,14.10
2022-10-02T03:21:36.524Z,14.10
2022-10-02T03:24:12.715Z,14.10
2022-10-02T03:26:45.659Z,14.10
2022-10-02T03:29:19.415Z,14.10
2022-10-02T03:31:48.942Z,14.10
2022-10-02T03:34:18.380Z,14.10
2022-10-02T03:36:47.975Z,14.10
2022-10-02T03:39:25.659Z,14.10
2022-10-02T03:41:54.859Z,14.10
2022-10-02T03:44:24.651Z,14.00
2022-10-02T03:46:53.270Z,14.10
2022-10-02T03:49:21.485Z,14.10
2022-10-02T03:51:49.635Z,14.10
2022-10-02T03:54:19.646Z,14.10
2022-10-02T03:56:54.399Z,14.10
2022-10-02T03:59:34.382Z,14.00
2022-10-02T04:02:07.424Z,14.00
2022-10-02T04:04:43.554Z,14.00
2022-10-02T04:07:17.678Z,13.90
2022-10-02T04:09:52.595Z,13.90
2022-10-02T04:12:27.048Z,13.90
2022-10-02T04:15:02.226Z,13.90
2022-10-02T04:17:38.556Z,13.90
2022-10-02T04:20:14.305Z,13.80
2022-10-02T04:22:47.701Z,13.90
2022-10-02T04:25:19.290Z,13.90
2022-10-02T04:27:52.380Z,13.80
2022-10-02T04:30:22.472Z,13.80
2022-10-02T04:32:51.512Z,13.90
2022-10-02T04:35:30.542Z,13.90
2022-10-02T04:38:19.321Z,13.80
2022-10-02T04:41:02.457Z,13.80
2022-10-02T04:43:45.228Z,13.70
2022-10-02T04:46:27.559Z,13.70
2022-10-02T04:49:22.062Z,13.70
2022-10-02T04:52:06.462Z,13.70
2022-10-02T04:54:48.117Z,13.70
2022-10-02T04:57:29.310Z,13.60
2022-10-02T05:00:09.562Z,13.60
2022-10-02T05:02:58.646Z,13.60
2022-10-02T05:05:39.470Z,13.60
2022-10-02T05:08:33.402Z,13.60
2022-10-02T05:11:12.161Z,13.60
2022-10-02T05:13:57.906Z,13.60
2022-10-02T05:16:43.805Z,13.60
2022-10-02T05:19:43.881Z,13.70
2022-10-02T05:22:24.258Z,13.60
2022-10-02T05:25:04.552Z,13.60
2022-10-02T05:27:51.423Z,13.60
2022-10-02T05:30:20.723Z,13.60
2022-10-02T05:33:28.319Z,13.60
2022-10-02T05:36:17.330Z,13.60
2022-10-02T05:38:58.324Z,13.70
2022-10-02T05:41:33.684Z,13.70
2022-10-02T05:44:07.401Z,13.70
2022-10-02T05:46:43.161Z,13.70
2022-10-02T05:49:17.727Z,13.70
2022-10-02T05:51:53.706Z,13.80
2022-10-02T05:54:35.731Z,13.80
2022-10-02T05:57:09.802Z,13.80
2022-10-02T05:59:45.054Z,13.90
2022-10-02T06:02:21.418Z,13.90
2022-10-02T06:04:58.620Z,13.90
2022-10-02T06:07:29.357Z,13.90
2022-10-02T06:10:04.228Z,13.90
2022-10-02T06:12:38.579Z,13.90
2022-10-02T06:15:13.132Z,13.90
2022-10-02T06:17:47.357Z,14.00
2022-10-02T06:20:20.889Z,14.10
2022-10-02T06:22:55.109Z,14.10
2022-10-02T06:25:28.889Z,14.10
2022-10-02T06:28:00.992Z,14.20
2022-10-02T06:30:32.361Z,14.20
2022-10-02T06:33:05.730Z,14.30
2022-10-02T06:35:51.525Z,14.40
2022-10-02T06:38:35.587Z,14.40
2022-10-02T06:41:10.664Z,14.40
2022-10-02T06:43:55.058Z,14.60
2022-10-02T06:46:31.272Z,14.60
2022-10-02T06:49:05.685Z,14.80
2022-10-02T06:51:46.550Z,14.90
2022-10-02T06:54:34.073Z,15.00
2022-10-02T06:57:20.295Z,15.00
2022-10-02T07:00:04.421Z,15.10
2022-10-02T07:02:59.350Z,15.20
2022-10-02T07:05:52.066Z,15.30
2022-10-02T07:08:27.514Z,15.40
2022-10-02T07:11:04.878Z,15.50
2022-10-02T07:14:07.536Z,15.50
2022-10-02T07:17:05.240Z,15.60
2022-10-02T07:20:15.273Z,15.70
2022-10-02T07:23:00.316Z,15.80
2022-10-02T07:25:45.158Z,15.80
2022-10-02T07:28:24.921Z,15.90
2022-10-02T07:31:00.581Z,16.00
2022-10-02T07:33:48.369Z,16.00
2022-10-02T07:36:26.762Z,16.00
2022-10-02T07:39:09.099Z,16.00
2022-10-02T07:41:57.724Z,16.10
2022-10-02T07:44:55.722Z,16.20
2022-10-02T07:47:38.430Z,16.30
2022-10-02T07:50:13.428Z,16.30
2022-10-02T07:52:51.678Z,16.40
2022-10-02T07:55:22.111Z,16.40
2022-10-02T07:58:01.535Z,16.40
2022-10-02T08:00:35.822Z,16.50
2022-10-02T08:03:08.639Z,16.50
2022-10-02T08:05:42.484Z,16.50
2022-10-02T08:08:17.563Z,16.60
2022-10-02T08:10:50.719Z,16.60
2022-10-02T08:13:22.079Z,16.60
2022-10-02T08:15:57.251Z,16.70
2022-10-02T08:18:35.131Z,16.70
2022-10-02T08:21:06.475Z,16.80
2022-10-02T08:23:40.208Z,16.80
2022-10-02T08:26:13.743Z,16.80
2022-10-02T08:28:47.508Z,16.90
2022-10-02T08:31:17.102Z,16.90
2022-10-02T08:33:45.416Z,17.00
2022-10-02T08:36:37.232Z,17.00
2022-10-02T08:39:18.042Z,17.10
2022-10-02T08:42:26.055Z,17.10
2022-10-02T08:45:26.219Z,17.20
2022-10-02T08:48:27.340Z,17.20
2022-10-02T08:51:29.757Z,17.30
2022-10-02T08:54:22.830Z,17.40
2022-10-02T08:57:13.274Z,17.40
2022-10-02T09:00:11.086Z,17.50
2022-10-02T09:03:34.542Z,17.60
2022-10-02T09:06:31.597Z,17.60
2022-10-02T09:09:42.532Z,17.70
2022-10-02T09:13:01.668Z,17.70
2022-10-02T09:15:45.035Z,17.80
2022-10-02T09:18:34.393Z,17.80
2022-10-02T09:21:18.690Z,17.90
2022-10-02T09:24:36.012Z,17.90
2022-10-02T09:27:45.472Z,18.00
2022-10-02T09:30:28.266Z,18.00
2022-10-02T09:33:34.703Z,18.10
2022-10-02T09:36:47.819Z,18.10
2022-10-02T09:39:44.890Z,18.20
2022-10-02T09:42:45.566Z,18.30
2022-10-02T09:46:00.166Z,18.40
2022-10-02T09:49:00.706Z,18.50
2022-10-02T09:51:56.336Z,18.60
2022-10-02T09:54:56.467Z,18.70
2022-10-02T09:58:03.509Z,18.80
2022-10-02T10:01:02.307Z,18.90
2022-10-02T10:04:02.131Z,19.00
2022-10-02T10:10:39.112Z,19.20
2022-10-02T10:13:36.842Z,19.40
2022-10-02T10:16:59.069Z,19.40
2022-10-02T10:20:00.296Z,19.50
2022-10-02T10:22:57.577Z,19.60
2022-10-02T10:25:51.677Z,19.70
2022-10-02T10:28:48.849Z,19.60
2022-10-02T10:31:48.664Z,19.70
2022-10-02T10:34:47.960Z,19.70
2022-10-02T10:38:00.232Z,19.70
2022-10-02T10:40:43.838Z,19.70
2022-10-02T10:43:42.048Z,19.80
2022-10-02T10:46:42.221Z,19.70
2022-10-02T10:49:35.310Z,19.70
2022-10-02T10:52:16.148Z,19.70
2022-10-02T10:54:57.029Z,19.70
2022-10-02T10:57:52.042Z,19.70
2022-10-02T11:00:25.832Z,19.80
2022-10-02T11:03:41.990Z,19.80
2022-10-02T11:06:34.129Z,19.80
2022-10-02T11:09:44.431Z,19.90
2022-10-02T11:12:45.446Z,19.90
2022-10-02T11:15:31.992Z,20.00
2022-10-02T11:18:17.125Z,20.00
2022-10-02T11:21:06.157Z,20.00
2022-10-02T11:23:54.642Z,20.10
2022-10-02T11:26:40.576Z,20.10
2022-10-02T11:29:37.680Z,20.20
2022-10-02T11:32:28.070Z,20.20
2022-10-02T11:35:11.798Z,20.20
2022-10-02T11:37:51.347Z,20.20
2022-10-02T11:40:34.161Z,20.20
2022-10-02T11:43:31.799Z,20.20
2022-10-02T11:46:28.971Z,20.20
2022-10-02T11:49:13.110Z,20.30
2022-10-02T11:52:04.297Z,20.30
2022-10-02T11:54:54.678Z,20.30
2022-10-02T11:57:32.194Z,20.30
2022-10-02T12:00:19.664Z,20.30
2022-10-02T12:03:00.009Z,20.30
2022-10-02T12:05:51.712Z,20.30
2022-10-02T12:08:30.298Z,20.30
2022-10-02T12:11:06.948Z,20.20
2022-10-02T12:14:01.239Z,20.20
2022-10-02T12:16:42.875Z,20.30
2022-10-02T12:19:28.462Z,20.20
2022-10-02T12:22:31.823Z,20.20
2022-10-02T12:25:34.945Z,20.30
2022-10-02T12:28:13.622Z,20.30
2022-10-02T12:30:47.757Z,20.20
2022-10-02T12:33:34.487Z,20.20
2022-10-02T12:36:34.308Z,20.20
2022-10-02T12:39:18.806Z,20.20
2022-10-02T12:42:04.842Z,20.20
2022-10-02T12:45:11.704Z,20.10
2022-10-02T12:48:09.125Z,20.10
2022-10-02T12:50:55.009Z,20.10
2022-10-02T12:54:07.602Z,20.10
2022-10-02T12:57:36.650Z,20.10
2022-10-02T13:00:14.540Z,20.10
2022-10-02T13:03:20.320Z,20.10
2022-10-02T13:06:22.426Z,20.10
2022-10-02T13:09:08.997Z,20.10
2022-10-02T13:11:54.950Z,20.10
2022-10-02T13:14:44.002Z,20.10
2022-10-02T13:17:29.871Z,20.10
2022-10-02T13:20:13.270Z,20.10
2022-10-02T13:22:51.020Z,20.10
2022-10-02T13:25:46.054Z,20.10
2022-10-02T13:28:33.596Z,20.10
2022-10-02T13:31:12.469Z,20.10
2022-10-02T13:34:05.543Z,20.10
2022-10-02T13:36:51.170Z,20.10
2022-10-02T13:39:30.767Z,20.10
2022-10-02T13:42:18.193Z,20.00
2022-10-02T13:44:53.830Z,20.10
2022-10-02T13:47:38.893Z,20.10
2022-10-02T13:50:24.636Z,20.10
2022-10-02T13:53:19.858Z,20.10
2022-10-02T13:55:54.018Z,20.10
2022-10-02T13:58:55.725Z,20.10
2022-10-02T14:01:36.038Z,20.10
2022-10-02T14:04:30.595Z,20.10
2022-10-02T14:07:11.051Z,20.10
2022-10-02T14:09:51.112Z,20.10
2022-10-02T14:12:28.821Z,20.10
2022-10-02T14:15:21.053Z,20.10
2022-10-02T14:18:13.930Z,20.10
2022-10-02T14:20:52.335Z,20.10
2022-10-02T14:23:45.539Z,20.10
2022-10-02T14:26:21.293Z,20.10
2022-10-02T14:29:11.202Z,20.10
2022-10-02T14:32:17.355Z,20.10
2022-10-02T14:35:21.857Z,20.10
2022-10-02T14:38:17.698Z,20.00
2022-10-02T14:40:53.042Z,20.00
2022-10-02T14:43:55.487Z,20.00
2022-10-02T14:46:44.486Z,20.00
2022-10-02T14:49:35.238Z,20.00
2022-10-02T14:52:19.754Z,19.90
2022-10-02T14:55:20.380Z,19.90
2022-10-02T14:58:09.210Z,19.90
2022-10-02T15:00:45.313Z,19.90
2022-10-02T15:03:34.624Z,19.90
2022-10-02T15:06:21.870Z,19.90
2022-10-02T15:08:54.635Z,19.90
2022-10-02T15:11:31.172Z,19.90
2022-10-02T15:14:04.675Z,19.90
2022-10-02T15:17:00.017Z,19.90
2022-10-02T15:19:33.683Z,19.90
2022-10-02T15:22:08.448Z,19.90
2022-10-02T15:24:46.546Z,19.90
2022-10-02T15:27:24.330Z,20.00
2022-10-02T15:30:15.320Z,20.00
2022-10-02T15:33:07.532Z,20.00
2022-10-02T15:35:55.287Z,20.00
2022-10-02T15:39:05.085Z,20.00
2022-10-02T15:41:41.566Z,20.00
2022-10-02T15:44:24.997Z,20.00
2022-10-02T15:46:58.657Z,20.00
2022-10-02T15:49:57.393Z,20.00
2022-10-02T15:52:35.796Z,20.00
2022-10-02T15:55:19.903Z,19.90
2022-10-02T15:58:09.442Z,19.90
2022-10-02T16:01:01.801Z,19.90
2022-10-02T16:03:39.948Z,19.80
2022-10-02T16:06:13.947Z,19.90
2022-10-02T16:09:11.783Z,19.90
2022-10-02T16:12:18.616Z,19.80
2022-10-02T16:14:58.864Z,19.80
2022-10-02T16:17:52.280Z,19.80
2022-10-02T16:20:56.136Z,19.80
2022-10-02T16:23:42.472Z,19.80
2022-10-02T16:26:20.491Z,19.80
2022-10-02T16:28:57.645Z,19.70
2022-10-02T16:31:41.162Z,19.70
2022-10-02T16:34:25.425Z,19.70
2022-10-02T16:36:55.297Z,19.70
2022-10-02T16:39:42.317Z,19.60
2022-10-02T16:42:42.971Z,19.60
2022-10-02T16:45:31.518Z,19.60
2022-10-02T16:48:08.906Z,19.50
2022-10-02T16:51:04.806Z,19.50
2022-10-02T16:53:37.863Z,19.40
2022-10-02T16:56:13.194Z,19.40
2022-10-02T16:58:49.195Z,19.40
2022-10-02T17:01:25.938Z,19.30
2022-10-02T17:04:22.155Z,19.30
2022-10-02T17:06:58.196Z,19.30
2022-10-02T17:09:33.324Z,19.20
2022-10-02T17:12:11.123Z,19.20
2022-10-02T17:14:46.647Z,19.20
2022-10-02T17:17:23.458Z,19.20
2022-10-02T17:19:55.282Z,19.20
2022-10-02T17:22:33.618Z,19.20
2022-10-02T17:25:17.240Z,19.20
2022-10-02T17:27:53.582Z,19.20
2022-10-02T17:30:27.040Z,19.20
2022-10-02T17:33:13.102Z,19.20
2022-10-02T17:35:49.683Z,19.20
2022-10-02T17:38:37.870Z,19.20
2022-10-02T17:41:16.751Z,19.10
2022-10-02T17:43:58.621Z,19.10
2022-10-02T17:46:55.993Z,19.10
2022-10-02T17:49:32.758Z,19.10
2022-10-02T17:52:30.732Z,19.00
2022-10-02T17:55:32.850Z,19.00
2022-10-02T17:58:13.142Z,19.00
2022-10-02T18:00:53.961Z,19.00
2022-10-02T18:03:36.792Z,19.00
2022-10-02T18:06:15.832Z,19.00
2022-10-02T18:09:04.907Z,19.00
2022-10-02T18:12:03.967Z,19.00
2022-10-02T18:15:09.934Z,18.90
2022-10-02T18:17:47.995Z,18.90
2022-10-02T18:20:25.875Z,18.80
2022-10-02T18:23:10.516Z,18.80
2022-10-02T18:25:50.812Z,18.80
2022-10-02T18:28:42.846Z,18.80
2022-10-02T18:31:44.309Z,18.70
2022-10-02T18:34:43.516Z,18.70
2022-10-02T18:37:35.870Z,18.70
2022-10-02T18:40:17.519Z,18.60
2022-10-02T18:43:00.726Z,18.60
2022-10-02T18:45:44.201Z,18.60
2022-10-02T18:48:32.326Z,18.60
2022-10-02T18:51:19.905Z,18.60
2022-10-02T18:54:01.249Z,18.60
2022-10-02T18:56:51.874Z,18.60
2022-10-02T18:59:30.253Z,18.50
2022-10-02T19:02:14.366Z,18.50
2022-10-02T19:05:10.188Z,18.50
2022-10-02T19:07:42.058Z,18.50
2022-10-02T19:10:29.639Z,18.50
2022-10-02T19:13:02.947Z,18.50
2022-10-02T19:15:33.183Z,18.60
2022-10-02T19:18:05.371Z,18.50
2022-10-02T19:20:43.598Z,18.60
2022-10-02T19:23:22.378Z,18.50
2022-10-02T19:25:52.502Z,18.50
2022-10-02T19:28:25.530Z,18.50
2022-10-02T19:30:56.673Z,18.50
2022-10-02T19:33:36.227Z,18.50
2022-10-02T19:36:06.638Z,18.50
2022-10-02T19:38:38.048Z,18.50
2022-10-02T19:41:11.452Z,18.50
2022-10-02T19:43:48.241Z,18.50
2022-10-02T19:46:19.914Z,18.50
2022-10-02T19:48:57.029Z,18.50
2022-10-02T19:51:26.147Z,18.50
2022-10-02T19:53:58.957Z,18.60
2022-10-02T19:56:33.083Z,18.60
2022-10-02T19:59:05.830Z,18.60
2022-10-02T20:01:42.093Z,18.60
2022-10-02T20:04:18.749Z,18.60
2022-10-02T20:06:52.413Z,18.60
2022-10-02T20:09:26.025Z,18.70
2022-10-02T20:12:01.124Z,18.70
2022-10-02T20:14:36.691Z,18.70
2022-10-02T20:17:10.004Z,18.70
2022-10-02T20:19:45.535Z,18.70
2022-10-02T20:22:30.147Z,18.70
2022-10-02T20:25:03.657Z,18.80
2022-10-02T20:27:42.323Z,18.80
2022-10-02T20:30:15.408Z,18.80
2022-10-02T20:32:48.820Z,18.80
2022-10-02T20:35:22.832Z,18.80
2022-10-02T20:37:54.091Z,18.80
2022-10-02T20:40:26.791Z,18.80
2022-10-02T20:43:01.141Z,18.90
2022-10-02T20:45:36.567Z,18.90
2022-10-02T20:49:06.506Z,18.90
2022-10-02T20:51:54.524Z,18.90
2022-10-02T20:54:36.520Z,18.90
2022-10-02T20:57:56.393Z,18.90
2022-10-02T21:00:23.333Z,18.90
2022-10-02T21:03:22.548Z,18.90
2022-10-02T21:06:41.116Z,19.00
2022-10-02T21:09:57.666Z,19.00
2022-10-02T21:13:10.927Z,19.00
2022-10-02T21:15:55.364Z,19.00
2022-10-02T21:19:03.872Z,19.00
2022-10-02T21:22:18.472Z,19.00
2022-10-02T21:25:18.305Z,19.00
2022-10-02T21:28:29.151Z,19.00
2022-10-02T21:31:11.565Z,19.00
2022-10-02T21:33:41.912Z,19.00
2022-10-02T21:36:17.222Z,19.00
2022-10-02T21:39:52.809Z,19.00
2022-10-02T21:42:53.290Z,19.00
2022-10-02T21:45:41.297Z,19.00
2022-10-02T21:48:41.487Z,19.00
2022-10-02T21:51:56.231Z,19.00
2022-10-02T21:54:55.054Z,18.90
2022-10-02T21:58:07.889Z,18.80
2022-10-02T22:00:46.422Z,18.80
2022-10-02T22:03:52.756Z,18.70
2022-10-02T22:06:44.865Z,18.70
2022-10-02T22:09:44.671Z,18.70
2022-10-02T22:12:28.143Z,18.60
2022-10-02T22:15:10.764Z,18.60
2022-10-02T22:17:49.166Z,18.60
2022-10-02T22:20:40.742Z,18.50
2022-10-02T22:23:26.504Z,18.50
2022-10-02T22:26:06.222Z,18.50
2022-10-02T22:28:45.650Z,18.50
2022-10-02T22:31:48.147Z,18.40
2022-10-02T22:34:34.110Z,18.40
2022-10-02T22:37:20.421Z,18.40
2022-10-02T22:39:54.198Z,18.40
2022-10-02T22:42:26.885Z,18.40
2022-10-02T22:45:01.646Z,18.40
2022-10-02T22:47:36.426Z,18.30
2022-10-02T22:50:09.694Z,18.30
2022-10-02T22:52:50.261Z,18.20
2022-10-02T22:55:23.237Z,18.20
2022-10-02T22:57:58.334Z,18.10
2022-10-02T23:00:31.652Z,18.10
2022-10-02T23:03:08.919Z,18.00
2022-10-02T23:05:42.525Z,18.00
2022-10-02T23:08:19.320Z,18.00
2022-10-02T23:10:51.533Z,17.90
2022-10-02T23:13:27.486Z,17.90
2022-10-02T23:16:02.382Z,17.80
2022-10-02T23:18:41.287Z,17.80
2022-10-02T23:21:23.894Z,17.80
2022-10-02T23:23:58.838Z,17.80
2022-10-02T23:26:33.366Z,17.70
2022-10-02T23:29:15.970Z,17.70
2022-10-02T23:31:54.761Z,17.60
2022-10-02T23:34:35.974Z,17.60
2022-10-02T23:37:13.685Z,17.50
2022-10-02T23:39:48.490Z,17.50
2022-10-02T23:42:22.829Z,17.40
2022-10-02T23:44:58.626Z,17.40
2022-10-02T23:47:34.776Z,17.40
2022-10-02T23:50:10.183Z,17.40
2022-10-02T23:53:02.660Z,17.40
2022-10-02T23:56:00.471Z,17.30
2022-10-02T23:58:52.189Z,17.30
